Latest Coastal Weather Observations for Cerberus

IDV60701

Issued at 1:52 am EST Friday 22 September 2017 (issued every 10 minutes, with the page automatically refreshed every 10 minutes)

About coastal observations | Map of coastal stations | Coastal observations for VIC | Marine services | Other Formats
Station Details ID: 086361 Name: CERBERUS Lat: -38.36 Lon: 145.18 Height: 12.69 m
Data from the previous 72 hours. | See also: Recent months at Cerberus
Date/Time
EST
Temp
°C
Wind Pressure Rain since
9am
mm
Weather Cloud Vis
km
Sea
Height
m
Swell
Dir  Spd
kts
Gust
kts
hPa Trend Height
m
Period
s
Dir
22/01:30am 11.8 CALM 0 0 1011.6 - 0.0 - - - - - - -
22/01:00am 11.5 CALM 0 0 1011.6 - 0.0 - - - - - - -
22/12:30am 11.5 CALM 0 0 1012.0 - 0.0 - - - - - - -
22/12:00am 11.4 SSW 1 2 1012.0 - 0.0 - - - - - - -
 
Date/Time
EST
Temp
°C
Wind Pressure Rain since
9am
mm
Weather Cloud Vis
km
Sea
Height
m
Swell
Dir  Spd
kts
Gust
kts
hPa Trend Height
m
Period
s
Dir
21/11:30pm 11.1 SSW 2 2 1012.1 - 0.0 - - - - - - -
21/11:00pm 11.0 SSW 1 2 1011.9 - 0.0 - - - - - - -
21/10:30pm 11.9 SSW 3 4 1011.9 - 0.0 - - - - - - -
21/10:00pm 12.6 SW 4 7 1011.8 - 0.0 - - - - - - -
21/09:30pm 12.7 SW 4 7 1011.4 - 0.0 - - - - - - -
21/09:00pm 12.9 SW 5 7 1011.2 - 0.0 - - - - - - -
21/08:30pm 13.0 SSW 4 6 1010.8 - 0.0 - - - - - - -
21/08:00pm 13.2 SSW 3 5 1010.5 - 0.0 - - - - - - -
21/07:30pm 13.3 SSW 5 9 1010.0 - 0.0 - - - - - - -
21/07:00pm 13.3 SSW 4 7 1009.4 - 0.0 - - - - - - -
21/06:30pm 13.5 SW 7 12 1009.1 - 0.0 - - - - - - -
21/06:00pm 13.9 SW 8 11 1008.9 - 0.0 - - - - - - -
21/05:30pm 14.4 SW 8 13 1008.6 - 0.0 - - - - - - -
21/05:00pm 15.2 SSW 12 20 1007.9 - 0.0 - - - - - - -
21/04:52pm 15.7 SW 11 20 1008.2 - 0.0 - - - - - - -
21/04:30pm 20.7 WNW 8 14 1007.3 - 0.0 - - - - - - -
21/04:00pm 22.2 NW 9 18 1006.9 - 0.0 - - - - - - -
21/03:30pm 21.9 NNW 11 18 1006.7 - 0.0 - - - - - - -
21/03:00pm 21.9 NNW 11 17 1006.4 - 0.0 - - - - - - -
21/02:30pm 22.1 NNW 11 23 1006.5 - 0.0 - - - - - - -
21/02:00pm 21.0 NNW 12 21 1006.7 - 0.0 - - - - - - -
21/01:30pm 21.6 NNW 14 23 1006.9 - 0.0 - - - - - - -
21/01:00pm 20.8 NNW 11 21 1007.2 - 0.0 - - - - - - -
21/12:47pm 20.6 N 15 31 1007.1 - 0.0 - - - - - - -
21/12:30pm 20.1 NNW 11 21 1007.6 - 0.0 - - - - - - -
21/12:00pm 20.4 N 10 19 1008.0 - 0.0 - - - - - - -
21/11:30am 18.8 N 15 26 1008.6 - 0.0 - - - - - - -
21/11:00am 18.0 N 13 23 1009.6 - 0.0 - - - - - - -
21/10:45am 18.0 NNW 15 30 1009.9 - 0.0 - - - - - - -
21/10:30am 17.6 NNW 11 19 1010.0 - 0.0 - - - - - - -
21/10:00am 15.7 N 11 19 1009.1 - 0.0 - - - - - - -
21/09:30am 15.1 N 8 13 1010.7 - 0.0 - - - - - - -
21/09:00am 15.0 N 9 18 1010.8 - 0.0 - - - - - - -
21/08:30am 15.1 N 8 15 1011.3 - 0.0 - - - - - - -
21/08:00am 14.9 N 8 15 1011.8 - 0.0 - - - - - - -
21/07:30am 14.7 N 7 15 1012.1 - 0.0 - - - - - - -
21/07:00am 14.5 N 8 13 1012.0 - 0.0 - - - - - - -
21/06:30am 13.9 N 8 13 1011.5 - 0.0 - - - - - - -
21/06:00am 12.9 N 7 13 1011.4 - 0.0 - - - - - - -
21/05:30am 12.4 N 6 9 1011.7 - 0.0 - - - - - - -
21/05:00am 12.0 N 7 11 1011.6 - 0.0 - - - - - - -
21/04:30am 9.3 N 2 5 1011.9 - 0.0 - - - - - - -
21/04:00am 8.8 NE 3 5 1012.1 - 0.0 - - - - - - -
21/03:30am 8.7 NE 2 3 1012.6 - 0.0 - - - - - - -
21/03:00am 9.1 NNE 1 3 1012.8 - 0.0 - - - - - - -
21/02:30am 9.7 NE 2 3 1013.1 - 0.0 - - - - - - -
21/02:00am 10.5 NE 2 2 1013.3 - 0.0 - - - - - - -
21/01:30am 11.2 NNE 3 5 1013.3 - 0.0 - - - - - - -
21/01:00am 12.3 NNE 5 9 1013.6 - 0.0 - - - - - - -
21/12:30am 13.0 N 6 10 1014.0 - 0.0 - - - - - - -
21/12:00am 13.7 N 8 14 1014.2 - 0.0 - - - - - - -
 
Date/Time
EST
Temp
°C
Wind Pressure Rain since
9am
mm
Weather Cloud Vis
km
Sea
Height
m
Swell
Dir  Spd
kts
Gust
kts
hPa Trend Height
m
Period
s
Dir
20/11:30pm 13.4 N 5 9 1014.5 - 0.0 - - - - - - -
20/11:00pm 13.7 N 6 9 1014.9 - 0.0 - - - - - - -
20/10:30pm 14.1 N 5 8 1015.6 - 0.0 - - - - - - -
20/10:00pm 13.8 NNW 3 5 1015.6 - 0.0 - - - - - - -
20/09:30pm 14.6 N 4 7 1015.3 - 0.0 - - - - - - -
20/09:00pm 14.9 N 7 13 1015.2 - 0.0 - - - - - - -
20/08:30pm 15.4 N 5 12 1015.2 - 0.0 - - - - - - -
20/08:00pm 15.7 NNW 8 14 1015.4 - 0.0 - - - - - - -
20/07:30pm 15.7 N 5 10 1015.1 - 0.0 - - - - - - -
20/07:00pm 15.4 N 4 8 1014.9 - 0.0 - - - - - - -
20/06:30pm 15.7 N 5 10 1015.0 - 0.0 - - - - - - -
20/06:00pm 16.3 NNW 6 10 1014.9 - 0.0 - - - - - - -
20/05:30pm 16.9 N 5 9 1014.5 - 0.0 - - - - - - -
20/05:00pm 17.3 N 6 10 1014.2 - 0.0 - - - - - - -
20/04:30pm 17.5 NNW 7 12 1014.7 - 0.0 - - - - - - -
20/04:00pm 17.6 NNW 6 8 1014.7 - 0.0 - - - - - - -
20/03:30pm 18.1 NNW 6 13 1015.1 - 0.0 - - - - - - -
20/03:00pm 17.4 NNW 9 15 1015.3 - 0.0 - - - - - - -
20/02:30pm 17.9 NNW 8 13 1015.8 - 0.0 - - - - - - -
20/02:00pm 17.0 NNW 10 16 1016.1 - 0.0 - - - - - - -
20/01:30pm 16.6 NNW 9 15 1016.9 - 0.0 - - - - - - -
20/01:00pm 16.3 NNW 9 13 1017.5 - 0.0 - - - - - - -
20/12:30pm 15.8 NNW 7 14 1018.3 - 0.0 - - - - - - -
20/12:00pm 15.3 NNW 9 14 1019.1 - 0.0 - - - - - - -
20/11:30am 14.7 NW 10 16 1019.6 - 0.0 - - - - - - -
20/11:00am 14.0 NW 8 13 1019.6 - 0.0 - - - - - - -
20/10:30am 12.9 NNW 7 12 1020.0 - 0.0 - - - - - - -
20/10:00am 13.0 N 7 12 1020.0 - 0.0 - - - - - - -
20/09:30am 12.4 N 6 10 1020.3 - 0.0 - - - - - - -
20/09:00am 11.5 NNW 6 9 1020.9 - 0.0 - - - - - - -
20/08:30am 10.5 NNW 5 9 1020.8 - 0.0 - - - - - - -
20/08:00am 9.0 N 4 9 1020.8 - 0.0 - - - - - - -
20/07:30am 8.7 NNW 4 7 1020.8 - 0.0 - - - - - - -
20/07:00am 7.6 NNW 3 6 1020.9 - 0.0 - - - - - - -
20/06:30am 7.0 NNW 3 5 1021.1 - 0.0 - - - - - - -
20/06:00am 6.7 NW 2 4 1020.8 - 0.0 - - - - - - -
20/05:30am 6.9 NNW 2 4 1020.7 - 0.0 - - - - - - -
20/05:00am 7.0 NNW 3 5 1020.5 - 0.0 - - - - - - -
20/04:30am 7.0 NNW 3 5 1020.3 - 0.0 - - - - - - -
20/04:00am 6.6 NNW 3 4 1020.3 - 0.0 - - - - - - -
20/03:30am 6.4 NNW 2 3 1020.4 - 0.0 - - - - - - -
20/03:00am 6.0 N 1 2 1020.6 - 0.0 - - - - - - -
20/02:30am 4.0 CALM 0 0 1020.8 - 0.0 - - - - - - -
20/02:00am 4.5 N 2 3 1020.9 - 0.0 - - - - - - -
20/01:30am 4.5 N 2 2 1021.2 - 0.0 - - - - - - -
20/01:00am 5.2 CALM 0 0 1021.5 - 0.0 - - - - - - -
20/12:30am 5.4 SW 3 3 1021.5 - 0.0 - - - - - - -
20/12:00am 5.1 SSW 2 3 1021.7 - 0.0 - - - - - - -
 
Date/Time
EST
Temp
°C
Wind Pressure Rain since
9am
mm
Weather Cloud Vis
km
Sea
Height
m
Swell
Dir  Spd
kts
Gust
kts
hPa Trend Height
m
Period
s
Dir
19/11:30pm 6.0 SSW 1 3 1022.0 - 0.0 - - - - - - -
19/11:00pm 7.0 WNW 3 3 1022.1 - 0.0 - - - - - - -
19/10:30pm 6.7 WNW 2 3 1022.2 - 0.0 - - - - - - -
19/10:00pm 7.5 WNW 1 2 1022.4 - 0.0 - - - - - - -
19/09:30pm 8.3 NW 3 4 1022.3 - 0.0 - - - - - - -
19/09:00pm 9.3 WNW 2 2 1022.2 - 0.0 - - - - - - -
19/08:30pm 9.4 W 3 3 1022.1 - 0.0 - - - - - - -
19/08:00pm 9.9 WSW 3 6 1022.0 - 0.0 - - - - - - -
19/07:30pm 10.3 WSW 4 7 1021.9 - 0.0 - - - - - - -
19/07:00pm 10.4 WSW 4 5 1021.6 - 0.0 - - - - - - -
19/06:30pm 10.4 WSW 5 7 1021.3 - 0.0 - - - - - - -
19/06:00pm 10.7 WSW 7 11 1021.1 - 0.0 - - - - - - -
19/05:30pm 11.1 SW 9 15 1020.8 - 0.0 - - - - - - -
19/05:00pm 12.0 SW 9 18 1020.6 - 0.0 - - - - - - -
19/04:30pm 12.2 SW 10 14 1020.3 - 0.0 - - - - - - -
19/04:00pm 13.1 WSW 12 17 1020.2 - 0.0 - - - - - - -
19/03:30pm 12.8 WSW 11 17 1020.1 - 0.0 - - - - - - -
19/03:00pm 12.3 WSW 12 17 1020.0 - 0.0 - - - - - - -
19/02:30pm 13.6 WSW 12 19 1019.8 - 0.0 - - - - - - -
19/02:00pm 13.3 WSW 13 18 1019.5 - 0.0 - - - - - - -
19/01:30pm 13.5 SW 12 19 1019.5 - 0.0 - - - - - - -
19/01:00pm 12.6 WSW 11 19 1019.4 - 0.0 - - - - - - -
19/12:30pm 11.6 SW 12 19 1019.4 - 0.0 - - - - - - -
19/12:00pm 12.6 WSW 13 19 1019.1 - 0.0 - - - - - - -
19/11:30am 12.1 WSW 12 19 1018.8 - 0.0 - - - - - - -
19/11:00am 11.7 WSW 10 17 1018.9 - 0.0 - - - - - - -
19/10:30am 12.2 WSW 12 22 1018.7 - 0.0 - - - - - - -
19/10:00am 12.0 WSW 15 21 1018.5 - 0.0 - - - - - - -
19/09:48am 11.5 WSW 16 25 1018.3 - 0.0 - - - - - - -
19/09:30am 11.2 WNW 8 13 1018.1 - 0.0 - - - - - - -
19/09:00am 11.1 W 10 17 1017.8 - 5.8 Recent precip. - - - - - -
19/08:30am 9.9 WSW 9 16 1017.5 - 5.8 - - - - - - -
19/08:00am 8.8 W 9 17 1017.2 - 5.6 - - - - - - -
19/07:49am 9.0 W 11 27 1016.9 - 5.4 - - - - - - -
19/07:30am 8.8 WNW 6 8 1016.5 - 5.2 - - - - - - -
19/07:00am 7.6 W 8 13 1015.9 - 5.2 - - - - - - -
19/06:30am 8.5 WNW 10 17 1015.3 - 3.6 - - - - - - -
19/06:00am 8.6 WNW 9 13 1014.9 - 3.6 Recent precip. - - - - - -
19/05:30am 8.6 WNW 8 14 1014.3 - 3.6 - - - - - - -
19/05:00am 8.8 WNW 10 15 1013.8 - 3.0 - - - - - - -
19/04:30am 8.5 WNW 8 16 1013.4 - 3.0 - - - - - - -
19/04:00am 8.9 WNW 10 16 1013.2 - 2.8 - - - - - - -
19/03:30am 9.3 WNW 11 17 1012.8 - 1.4 - - - - - - -
19/03:00am 9.7 WNW 12 20 1012.2 - 1.2 - - - - - - -
19/02:30am 10.0 WNW 11 18 1012.0 - 1.2 - - - - - - -
19/02:00am 10.1 WNW 10 18 1012.0 - 1.2 - - - - - - -

Other Formats:

Comma delimited format used in spreadsheet applications
http://www.bom.gov.au/fwo/IDV60701/IDV60701.94898.axf

JavaScript Object Notation format (JSON) in row-major order
http://www.bom.gov.au/fwo/IDV60701/IDV60701.94898.json